بلغراد, Serbia

04:07 AM CEST on أعس×س 31, 2016 (GMT +0200)
Netiks Zvezdara | | Change Station

Elev 545 ft 44.80 °N, 20.49 °E | Updated 2 minutes ago

Clear
صافية
66.2 °F
Feels Like 66.2 °F
N
0.7
ريح متغير ريح from شمال شرقی
Gusts 0.7 mph

هذا اليوم
High -- | Low -- °F
--% Chance of Precip.
Yesterday
High -- | Low -- °F
Precip. -- في
الضغط 30.15 في
وضوح الرؤية -9999.0 أميال
سحابات
نقطة الندى 56 °F
الرطوبة 70%
Rainfall 0.00 في
عمق الثلج Not available.
5:59 AM 7:16 PM
الهلال الأخير, 2% visible
METAR LYBE 310200Z 26004KT CAVOK 16/15 Q1021 NOSIG
الضغط 30.15 في
وضوح الرؤية -9999.0 أميال
سحابات
نقطة الندى 56 °F
الرطوبة 70%
Rainfall 0.00 في
عمق الثلج Not available.
5:59 AM 7:16 PM
الهلال الأخير, 2% visible
METAR LYBE 310200Z 26004KT CAVOK 16/15 Q1021 NOSIG

10-Day Weather Forecast

×

Almanac

علم الفلك

Aug. 31, 2016 Rise Set
Actual Time
Civil Twilight
Nautical Twilight
Astronomical Twilight
قمر
Length Of Visible Light
طول الیوم
Tomorrow will be .
, % of the Moon is Illuminated

Today's Extremes

Country Highs Country Lows

Community

WunderPhotos

Upload Photos

1,935,985 photos uploaded!

WunderBlog® & News

Nearby

جودة الهواء

  جودة الهواء AQ Index Pollutant
Not available.

عمق الثلج

Station Depth Elevation

Earthquake Activity

City Distance Mag. Time & Date
Minimum magnitude displayed is 2.5.

Coastal Water Temperatures

مكان درجات الحرارة

Stations

Nearby Weather Stations

Station Location الحرارة رياح باردة نقطة الندى الرطوبة ريح Precip. Elev تحديث Type